createdAt,value
2019-02-05T04:41:21.179Z,4.00
2019-02-05T04:43:21.157Z,4.00
2019-02-05T04:44:21.157Z,4.00
2019-02-05T04:45:33.386Z,4.00
2019-02-05T04:46:22.144Z,4.00
2019-02-05T04:47:21.131Z,4.00
2019-02-05T04:48:21.103Z,4.00
2019-02-05T04:49:21.090Z,4.00
2019-02-05T06:04:20.269Z,4.00
2019-02-05T06:05:20.259Z,4.00
2019-02-05T06:06:20.248Z,4.00
2019-02-05T06:07:20.232Z,4.00
2019-02-05T06:08:20.227Z,4.00
2019-02-05T06:09:20.208Z,4.00
2019-02-05T06:10:20.206Z,4.00
2019-02-05T06:11:20.186Z,4.00
2019-02-05T06:12:20.178Z,4.00
2019-02-05T06:13:20.163Z,4.00
2019-02-05T06:14:20.152Z,4.00
2019-02-05T06:15:20.140Z,4.00
2019-02-05T06:17:20.118Z,4.00
2019-02-05T06:18:20.116Z,4.00
2019-02-05T06:19:20.143Z,4.00
2019-02-05T06:20:20.090Z,4.00
2019-02-05T06:21:20.073Z,4.00
2019-02-05T06:22:20.064Z,8.00
2019-02-05T06:23:20.056Z,4.00
2019-02-05T06:24:20.042Z,4.00
2019-02-05T06:25:20.029Z,8.00
2019-02-05T06:26:20.355Z,8.00
2019-02-05T06:27:20.051Z,8.00
2019-02-05T06:28:20.000Z,8.00
2019-02-05T06:29:19.983Z,12.00
2019-02-05T06:30:19.977Z,12.00
2019-02-05T06:31:19.967Z,12.00
2019-02-05T06:32:19.950Z,16.00
2019-02-05T06:33:23.430Z,20.00
2019-02-05T06:34:19.928Z,24.00
2019-02-05T06:35:19.924Z,24.00
2019-02-05T06:36:19.906Z,24.00
2019-02-05T06:37:19.894Z,32.00
2019-02-05T06:38:19.892Z,32.00
2019-02-05T06:39:19.871Z,32.00
2019-02-05T06:40:19.861Z,40.00
2019-02-05T06:41:19.858Z,44.00
2019-02-05T06:42:19.874Z,52.00
2019-02-05T06:43:19.830Z,56.00
2019-02-05T06:44:19.814Z,68.00
2019-02-05T06:45:19.810Z,72.00
2019-02-05T06:46:19.794Z,72.00
2019-02-05T06:47:19.783Z,80.00
2019-02-05T06:48:19.775Z,84.00
2019-02-05T06:49:19.758Z,88.00
2019-02-05T06:50:19.752Z,96.00
2019-02-05T06:51:19.737Z,112.00
2019-02-05T06:52:19.724Z,136.00
2019-02-05T06:53:19.723Z,144.00
2019-02-05T06:54:19.707Z,152.00
2019-02-05T06:55:19.696Z,156.00
2019-02-05T06:56:19.687Z,160.00
2019-02-05T06:57:19.670Z,164.00
2019-02-05T06:58:19.657Z,172.00
2019-02-05T06:59:19.648Z,188.00
2019-02-05T07:00:19.635Z,192.00
2019-02-05T07:01:19.626Z,212.00
2019-02-05T07:02:19.614Z,216.00
2019-02-05T07:03:19.604Z,220.00
2019-02-05T07:04:19.592Z,224.00
2019-02-05T07:05:19.586Z,232.00
2019-02-05T07:06:19.569Z,280.00
2019-02-05T07:07:19.563Z,336.00
2019-02-05T07:08:19.546Z,356.00
2019-02-05T07:09:19.544Z,372.00
2019-02-05T07:10:19.524Z,400.00
2019-02-05T07:11:19.511Z,384.00
2019-02-05T07:12:19.500Z,384.00
2019-02-05T07:13:19.494Z,416.00
2019-02-05T07:14:19.528Z,432.00
2019-02-05T07:15:19.465Z,460.00
2019-02-05T07:16:19.457Z,452.00
2019-02-05T07:17:19.445Z,436.00
2019-02-05T07:18:19.442Z,464.00
2019-02-05T07:19:19.428Z,484.00
2019-02-05T07:20:19.439Z,480.00
2019-02-05T07:21:19.400Z,516.00
2019-02-05T07:22:19.389Z,524.00
2019-02-05T07:23:19.384Z,496.00
2019-02-05T07:24:19.366Z,520.00
2019-02-05T07:25:19.354Z,544.00
2019-02-05T07:26:19.348Z,540.00
2019-02-05T07:27:19.339Z,512.00
2019-02-05T07:28:19.320Z,540.00
2019-02-05T07:29:19.311Z,532.00
2019-02-05T07:30:19.303Z,540.00
2019-02-05T07:31:19.287Z,588.00
2019-02-05T07:32:19.280Z,588.00
2019-02-05T07:33:19.264Z,564.00
2019-02-05T07:34:21.311Z,588.00
2019-02-05T07:35:19.244Z,656.00
2019-02-05T07:36:19.233Z,692.00
2019-02-05T07:37:19.219Z,716.00
2019-02-05T07:38:19.207Z,804.00
2019-02-05T07:39:19.227Z,804.00
2019-02-05T07:40:19.192Z,880.00
2019-02-05T07:41:19.175Z,880.00
2019-02-05T07:42:19.163Z,808.00
2019-02-05T07:43:19.152Z,812.00
2019-02-05T07:44:19.140Z,880.00
2019-02-05T07:45:19.136Z,932.00
2019-02-05T07:46:19.118Z,944.00
2019-02-05T07:47:19.111Z,868.00
2019-02-05T07:48:19.097Z,872.00
2019-02-05T07:49:19.085Z,932.00
2019-02-05T07:50:19.074Z,1020.00
2019-02-05T07:51:19.062Z,1040.00
2019-02-05T07:52:19.049Z,992.00
2019-02-05T07:53:19.045Z,992.00
2019-02-05T07:54:19.035Z,1108.00
2019-02-05T07:55:19.022Z,1316.00
2019-02-05T07:56:19.019Z,1472.00
2019-02-05T07:57:19.000Z,1420.00
2019-02-05T07:58:19.020Z,1252.00
2019-02-05T07:59:18.973Z,1164.00
2019-02-05T08:00:18.961Z,1120.00
2019-02-05T08:01:18.954Z,1108.00
2019-02-05T08:02:18.944Z,1168.00
2019-02-05T08:03:18.925Z,1276.00
2019-02-05T08:04:18.916Z,1352.00
2019-02-05T08:05:18.903Z,1396.00
2019-02-05T08:06:18.892Z,1352.00
2019-02-05T08:07:18.881Z,1292.00
2019-02-05T08:08:18.881Z,1264.00
2019-02-05T08:09:18.858Z,1264.00
2019-02-05T08:10:18.849Z,1228.00
2019-02-05T08:11:18.837Z,1192.00
2019-02-05T08:12:18.826Z,1140.00
2019-02-05T08:13:18.817Z,1052.00
2019-02-05T08:14:18.803Z,1100.00
2019-02-05T08:15:18.814Z,1244.00
2019-02-05T08:16:18.817Z,1416.00
2019-02-05T08:17:18.810Z,1284.00
2019-02-05T08:18:18.765Z,1220.00
2019-02-05T08:19:18.753Z,1492.00
2019-02-05T08:20:18.760Z,1344.00
2019-02-05T08:21:18.763Z,1244.00
2019-02-05T08:22:18.711Z,1528.00
2019-02-05T08:23:18.700Z,2072.00
2019-02-05T08:24:18.689Z,1964.00
2019-02-05T08:25:18.678Z,1616.00
2019-02-05T08:26:18.672Z,1648.00
2019-02-05T08:27:18.654Z,1764.00
2019-02-05T08:28:18.642Z,1884.00
2019-02-05T08:29:21.678Z,1888.00
2019-02-05T08:30:18.621Z,1788.00
2019-02-05T08:31:18.610Z,1480.00
2019-02-05T08:32:18.601Z,1496.00
2019-02-05T08:33:18.595Z,1620.00
2019-02-05T08:34:18.578Z,1636.00
2019-02-05T08:35:18.564Z,1484.00
2019-02-05T08:36:18.565Z,1372.00
2019-02-05T08:37:18.542Z,1344.00
2019-02-05T08:38:18.529Z,1244.00
2019-02-05T08:39:18.519Z,1188.00
2019-02-05T08:40:18.509Z,1120.00
2019-02-05T08:41:18.497Z,1060.00
2019-02-05T08:42:18.514Z,984.00
2019-02-05T08:43:18.477Z,1048.00
2019-02-05T08:44:18.462Z,1144.00
2019-02-05T08:45:18.452Z,1108.00
2019-02-05T08:46:18.473Z,968.00
2019-02-05T08:47:18.430Z,1024.00
2019-02-05T08:48:18.429Z,1180.00
2019-02-05T08:49:18.405Z,1448.00
2019-02-05T08:50:18.395Z,1704.00
2019-02-05T08:51:18.396Z,1844.00
2019-02-05T08:52:18.373Z,1820.00
2019-02-05T08:53:18.361Z,1916.00
2019-02-05T08:54:18.355Z,1924.00
2019-02-05T08:55:18.338Z,1744.00
2019-02-05T08:56:18.328Z,1604.00
2019-02-05T08:57:18.316Z,1652.00
2019-02-05T08:58:18.305Z,2108.00
2019-02-05T08:59:18.294Z,2320.00
2019-02-05T09:00:18.287Z,1868.00
2019-02-05T09:01:18.277Z,1516.00
2019-02-05T09:02:18.261Z,1636.00
2019-02-05T09:03:18.253Z,1756.00
2019-02-05T09:04:18.238Z,1500.00
2019-02-05T09:05:18.231Z,1336.00
2019-02-05T09:06:18.218Z,1308.00
2019-02-05T09:07:18.206Z,1184.00
2019-02-05T09:08:18.192Z,1024.00
2019-02-05T09:09:18.184Z,880.00
2019-02-05T09:10:18.171Z,776.00
2019-02-05T09:11:18.160Z,804.00
2019-02-05T09:12:18.179Z,984.00
2019-02-05T09:13:18.140Z,1108.00
2019-02-05T09:14:18.127Z,1064.00
2019-02-05T09:15:28.828Z,992.00
2019-02-05T09:16:42.590Z,1140.00
2019-02-05T09:17:42.576Z,1452.00
2019-02-05T09:18:42.563Z,1664.00
2019-02-05T09:19:42.549Z,1696.00
2019-02-05T09:20:42.543Z,1804.00
2019-02-05T09:21:42.528Z,2000.00
2019-02-05T09:22:42.516Z,2012.00
2019-02-05T09:23:42.506Z,1792.00
2019-02-05T09:24:42.495Z,1716.00
2019-02-05T09:25:42.532Z,1916.00
2019-02-05T09:26:42.473Z,2216.00
2019-02-05T09:27:42.460Z,2228.00
2019-02-05T09:28:42.448Z,2112.00
2019-02-05T09:29:42.442Z,2240.00
2019-02-05T09:30:42.427Z,2420.00
2019-02-05T09:31:42.417Z,2348.00
2019-02-05T09:32:42.403Z,2052.00
2019-02-05T09:33:42.395Z,1952.00
2019-02-05T09:34:42.383Z,2096.00
2019-02-05T09:35:42.370Z,2296.00
2019-02-05T09:36:42.360Z,2468.00
2019-02-05T09:37:42.347Z,2356.00
2019-02-05T09:38:42.335Z,2252.00
2019-02-05T09:39:42.341Z,2212.00
2019-02-05T09:40:42.318Z,2008.00
2019-02-05T09:41:42.306Z,1920.00
2019-02-05T09:42:42.297Z,1884.00
2019-02-05T09:43:42.279Z,1892.00
2019-02-05T09:44:42.266Z,1740.00
2019-02-05T09:45:42.255Z,1792.00
2019-02-05T09:46:42.250Z,1580.00
2019-02-05T09:47:42.233Z,1600.00
2019-02-05T09:48:42.225Z,1864.00
2019-02-05T09:49:42.220Z,1872.00
2019-02-05T09:50:45.019Z,1796.00
2019-02-05T09:51:42.190Z,1680.00
2019-02-05T09:52:42.178Z,1772.00
2019-02-05T09:53:42.171Z,1812.00
2019-02-05T09:54:42.160Z,1788.00
2019-02-05T09:55:42.150Z,1868.00
2019-02-05T09:56:42.137Z,1672.00
2019-02-05T09:57:42.122Z,1552.00
2019-02-05T09:58:42.110Z,1512.00
2019-02-05T09:59:45.394Z,1540.00
2019-02-05T10:00:42.089Z,1652.00
2019-02-05T10:01:42.213Z,1760.00
2019-02-05T10:02:42.067Z,1744.00
2019-02-05T10:03:42.058Z,1620.00
2019-02-05T10:04:42.052Z,1488.00
2019-02-05T10:05:42.036Z,1448.00
2019-02-05T10:06:42.021Z,1464.00
2019-02-05T10:07:42.023Z,1524.00
2019-02-05T10:08:41.999Z,1480.00
2019-02-05T10:09:41.988Z,1524.00
2019-02-05T10:10:41.990Z,1588.00
2019-02-05T10:11:41.968Z,1576.00
2019-02-05T10:12:41.961Z,1692.00
2019-02-05T10:13:41.950Z,1616.00
2019-02-05T10:14:41.931Z,1616.00
2019-02-05T10:15:41.923Z,1708.00
2019-02-05T10:16:41.924Z,1856.00
2019-02-05T10:17:41.905Z,1836.00
2019-02-05T10:18:41.892Z,1804.00
2019-02-05T10:19:41.875Z,1784.00
2019-02-05T10:20:41.867Z,1772.00
2019-02-05T10:21:41.855Z,1900.00
2019-02-05T10:22:41.840Z,1964.00
2019-02-05T10:23:41.830Z,1828.00
2019-02-05T10:24:41.827Z,1748.00
2019-02-05T10:25:41.811Z,1848.00
2019-02-05T10:26:41.805Z,1912.00
2019-02-05T10:27:41.784Z,1916.00
2019-02-05T10:28:41.774Z,1824.00
2019-02-05T10:29:41.768Z,1912.00
2019-02-05T10:30:41.752Z,1912.00
2019-02-05T10:31:41.739Z,1840.00
2019-02-05T10:32:41.731Z,1776.00
2019-02-05T10:33:41.719Z,1896.00
2019-02-05T10:34:41.708Z,1928.00
2019-02-05T10:35:41.696Z,1920.00
2019-02-05T10:36:41.689Z,1932.00
2019-02-05T10:37:41.673Z,1944.00
2019-02-05T10:38:41.662Z,2024.00
2019-02-05T10:39:41.651Z,2032.00
2019-02-05T10:40:41.647Z,1908.00
2019-02-05T10:41:41.653Z,1868.00
2019-02-05T10:42:44.019Z,1904.00
2019-02-05T10:43:41.609Z,1816.00
2019-02-05T10:44:41.595Z,1864.00
2019-02-05T10:45:41.584Z,2004.00
2019-02-05T10:46:41.574Z,1924.00
2019-02-05T10:47:41.567Z,1916.00
2019-02-05T10:48:41.557Z,2180.00
2019-02-05T10:49:41.542Z,2232.00
2019-02-05T10:50:41.529Z,2188.00
2019-02-05T10:51:41.525Z,2188.00
2019-02-05T10:52:41.505Z,2172.00
2019-02-05T10:53:41.494Z,2196.00
2019-02-05T10:54:41.484Z,2228.00
2019-02-05T10:55:41.478Z,2188.00
2019-02-05T10:56:41.468Z,2104.00
2019-02-05T10:57:41.449Z,2020.00
2019-02-05T10:58:41.438Z,1956.00
2019-02-05T10:59:41.435Z,2020.00
2019-02-05T11:00:41.421Z,2068.00
2019-02-05T11:01:41.412Z,2140.00
2019-02-05T11:02:41.395Z,2140.00
2019-02-05T11:03:41.389Z,2068.00
2019-02-05T11:04:41.382Z,2044.00
2019-02-05T11:05:41.361Z,2080.00
2019-02-05T11:06:41.347Z,2052.00
2019-02-05T11:07:41.341Z,2104.00
2019-02-05T11:08:41.325Z,2140.00
2019-02-05T11:09:41.319Z,2144.00
2019-02-05T11:10:41.303Z,2116.00
2019-02-05T11:11:41.293Z,2240.00
2019-02-05T11:12:41.385Z,2280.00
2019-02-05T11:13:41.288Z,2140.00
2019-02-05T11:14:41.259Z,2068.00
2019-02-05T11:15:41.251Z,2064.00
2019-02-05T11:16:41.236Z,2144.00
2019-02-05T11:17:41.226Z,2192.00
2019-02-05T11:18:41.214Z,2160.00
2019-02-05T11:19:41.203Z,2148.00
2019-02-05T11:20:41.190Z,2212.00
2019-02-05T11:21:41.191Z,2300.00
2019-02-05T11:22:41.174Z,2440.00
2019-02-05T11:23:41.163Z,2564.00
2019-02-05T11:24:41.147Z,2508.00
2019-02-05T11:25:41.135Z,2300.00
2019-02-05T11:26:41.125Z,2200.00
2019-02-05T11:27:41.112Z,2536.00
2019-02-05T11:28:41.101Z,2528.00
2019-02-05T11:29:41.091Z,2488.00
2019-02-05T11:30:41.078Z,2576.00
2019-02-05T11:31:41.078Z,2604.00
2019-02-05T11:32:41.057Z,2596.00
2019-02-05T11:33:41.046Z,2472.00
2019-02-05T11:34:41.035Z,2440.00
2019-02-05T11:36:41.011Z,2480.00
2019-02-05T11:37:41.001Z,2480.00
2019-02-05T11:38:40.988Z,2388.00
2019-02-05T11:39:40.983Z,2360.00
2019-02-05T11:40:40.971Z,2404.00
2019-02-05T11:41:40.955Z,2452.00
2019-02-05T11:42:40.995Z,2508.00
2019-02-05T11:43:40.938Z,2488.00
2019-02-05T11:44:40.921Z,2432.00
2019-02-05T11:45:40.922Z,2464.00
2019-02-05T11:46:40.903Z,2588.00
2019-02-05T11:47:40.887Z,2700.00
2019-02-05T11:48:40.879Z,2668.00
2019-02-05T11:49:40.865Z,2548.00
2019-02-05T11:50:40.852Z,2480.00
2019-02-05T11:51:40.842Z,2616.00
2019-02-05T11:52:40.831Z,2944.00
2019-02-05T11:53:40.823Z,2916.00
2019-02-05T11:54:40.814Z,2912.00
2019-02-05T11:55:40.801Z,2876.00
2019-02-05T11:56:40.789Z,2820.00
2019-02-05T11:57:40.776Z,2592.00
2019-02-05T11:58:40.767Z,2684.00
2019-02-05T11:59:41.770Z,2776.00
2019-02-05T12:00:40.740Z,2552.00
2019-02-05T12:01:40.732Z,2608.00
2019-02-05T12:02:40.717Z,2812.00
2019-02-05T12:03:40.709Z,2972.00
2019-02-05T12:04:40.695Z,3264.00
2019-02-05T12:05:40.685Z,2904.00
2019-02-05T12:06:40.675Z,2844.00
2019-02-05T12:07:40.662Z,2680.00
2019-02-05T12:08:40.649Z,2664.00
2019-02-05T12:09:40.641Z,2560.00
2019-02-05T12:10:40.627Z,2548.00
2019-02-05T12:11:40.621Z,2692.00
2019-02-05T12:12:40.604Z,2808.00
2019-02-05T12:13:40.595Z,2684.00
2019-02-05T12:14:40.585Z,2644.00
2019-02-05T12:15:40.572Z,2348.00
2019-02-05T12:16:40.557Z,2588.00
2019-02-05T12:17:40.549Z,2652.00
2019-02-05T12:18:40.534Z,2264.00
2019-02-05T12:19:40.524Z,2612.00
2019-02-05T12:20:40.516Z,2564.00
2019-02-05T12:21:40.516Z,3012.00
2019-02-05T12:22:40.489Z,2820.00
2019-02-05T12:23:40.478Z,2776.00
2019-02-05T12:24:40.466Z,3096.00
2019-02-05T12:25:40.455Z,3148.00
2019-02-05T12:26:40.442Z,3152.00
2019-02-05T12:27:40.433Z,3048.00
2019-02-05T12:28:40.420Z,3212.00
2019-02-05T12:29:40.410Z,3440.00
2019-02-05T12:30:44.855Z,3492.00
2019-02-05T12:31:40.385Z,3464.00
2019-02-05T12:32:40.375Z,3392.00
2019-02-05T12:33:40.364Z,3088.00
2019-02-05T12:34:40.351Z,2928.00
2019-02-05T12:36:40.329Z,3104.00
2019-02-05T12:37:40.316Z,3040.00
2019-02-05T12:38:40.314Z,3032.00
2019-02-05T12:39:40.298Z,3172.00
2019-02-05T12:40:40.282Z,3076.00
2019-02-05T12:41:40.272Z,2996.00
2019-02-05T12:42:40.259Z,3164.00
2019-02-05T12:43:40.249Z,3280.00
2019-02-05T12:44:40.237Z,3256.00
2019-02-05T12:45:40.226Z,3552.00
2019-02-05T12:46:40.213Z,3388.00
2019-02-05T12:47:40.202Z,3124.00
2019-02-05T12:48:40.193Z,3380.00
2019-02-05T12:49:40.184Z,3956.00
2019-02-05T12:50:40.176Z,3612.00
2019-02-05T12:51:40.159Z,3124.00
2019-02-05T12:52:40.153Z,3088.00
2019-02-05T12:53:40.134Z,2984.00
2019-02-05T12:54:40.125Z,3288.00
2019-02-05T12:55:40.116Z,3228.00
2019-02-05T12:56:40.099Z,3272.00
2019-02-05T12:57:40.089Z,3332.00
2019-02-05T12:58:40.081Z,3676.00
2019-02-05T12:59:40.070Z,3832.00
2019-02-05T13:00:40.059Z,3604.00
2019-02-05T13:01:40.050Z,2944.00
2019-02-05T13:02:40.049Z,2908.00
2019-02-05T13:03:40.023Z,2488.00
2019-02-05T13:04:40.011Z,2444.00
2019-02-05T13:05:40.005Z,2760.00
2019-02-05T13:06:39.986Z,3072.00
2019-02-05T13:07:39.975Z,2904.00
2019-02-05T13:08:39.969Z,3064.00
2019-02-05T13:09:39.951Z,2984.00
2019-02-05T13:10:39.944Z,2848.00
2019-02-05T13:11:39.930Z,2836.00
2019-02-05T13:12:39.918Z,2500.00
2019-02-05T13:13:39.905Z,2532.00
2019-02-05T13:14:39.899Z,2748.00
2019-02-05T13:15:39.885Z,2592.00
2019-02-05T13:16:39.878Z,2436.00
2019-02-05T13:17:39.861Z,2356.00
2019-02-05T13:18:39.847Z,2112.00
2019-02-05T13:19:39.837Z,1984.00
2019-02-05T13:21:39.837Z,2068.00
2019-02-05T13:22:39.835Z,1828.00
2019-02-05T13:23:39.838Z,1780.00
2019-02-05T13:24:39.785Z,1800.00
2019-02-05T13:25:39.790Z,1628.00
2019-02-05T13:26:39.790Z,1376.00
2019-02-05T13:27:39.791Z,1228.00
2019-02-05T13:28:39.735Z,1240.00
2019-02-05T13:29:39.723Z,1188.00
2019-02-05T13:30:39.711Z,1096.00
2019-02-05T13:31:39.699Z,1040.00
2019-02-05T13:32:39.689Z,1148.00
2019-02-05T13:33:39.684Z,1216.00
2019-02-05T13:34:39.666Z,1060.00
2019-02-05T13:35:39.651Z,1024.00
2019-02-05T13:36:39.648Z,1028.00
2019-02-05T13:37:39.633Z,1044.00
2019-02-05T13:38:39.618Z,1080.00
2019-02-05T13:39:39.607Z,1064.00
2019-02-05T13:40:39.597Z,1028.00
2019-02-05T13:41:39.588Z,956.00
2019-02-05T13:42:39.578Z,1112.00
2019-02-05T13:43:39.567Z,964.00
2019-02-05T13:44:39.549Z,948.00
2019-02-05T13:45:39.544Z,1120.00
2019-02-05T13:46:39.527Z,1252.00
2019-02-05T13:47:39.519Z,1288.00
2019-02-05T13:48:39.508Z,1444.00
2019-02-05T13:49:39.496Z,1448.00
2019-02-05T13:50:39.487Z,1328.00
2019-02-05T13:51:39.468Z,1328.00
2019-02-05T13:52:39.460Z,1372.00
2019-02-05T13:53:39.448Z,1456.00
2019-02-05T13:54:39.436Z,1340.00
2019-02-05T13:55:39.424Z,1408.00
2019-02-05T13:56:39.414Z,1640.00
2019-02-05T13:57:39.408Z,1588.00
2019-02-05T13:58:39.397Z,1652.00
2019-02-05T13:59:39.385Z,1776.00
2019-02-05T14:00:39.369Z,1716.00
2019-02-05T14:01:39.359Z,1528.00
2019-02-05T14:02:39.346Z,1576.00
2019-02-05T14:03:39.340Z,1384.00
2019-02-05T14:04:39.324Z,1252.00
2019-02-05T14:05:39.310Z,1316.00
2019-02-05T14:06:39.298Z,1344.00
2019-02-05T14:07:39.292Z,1292.00
2019-02-05T14:08:39.275Z,1484.00
2019-02-05T14:09:39.266Z,1636.00
2019-02-05T14:10:39.257Z,1464.00
2019-02-05T14:11:39.242Z,1540.00
2019-02-05T14:12:39.231Z,1356.00
2019-02-05T14:13:39.219Z,1164.00
2019-02-05T14:14:39.207Z,1208.00
2019-02-05T14:15:39.316Z,1464.00
2019-02-05T14:16:39.185Z,1356.00
2019-02-05T14:17:39.172Z,1324.00
2019-02-05T14:18:39.159Z,1508.00
2019-02-05T14:19:39.150Z,1620.00
2019-02-05T14:20:39.137Z,1712.00
2019-02-05T14:21:39.130Z,1664.00
2019-02-05T14:22:39.116Z,1696.00
2019-02-05T14:23:39.104Z,1668.00
2019-02-05T14:24:39.099Z,1692.00
2019-02-05T14:25:39.084Z,1584.00
2019-02-05T14:26:39.074Z,1576.00
2019-02-05T14:27:39.065Z,1548.00
2019-02-05T14:28:39.048Z,1592.00
2019-02-05T14:29:39.037Z,1600.00
2019-02-05T14:30:39.027Z,1544.00
2019-02-05T14:31:39.021Z,1492.00
2019-02-05T14:32:39.011Z,1600.00
2019-02-05T14:33:38.990Z,1532.00
2019-02-05T14:34:38.978Z,1480.00
2019-02-05T14:35:38.967Z,1196.00
2019-02-05T14:36:38.959Z,928.00
2019-02-05T14:37:38.945Z,952.00
2019-02-05T14:38:38.938Z,1112.00
2019-02-05T14:39:38.923Z,1296.00
2019-02-05T14:40:38.919Z,1440.00
2019-02-05T14:41:38.902Z,1512.00
2019-02-05T14:42:38.886Z,1532.00
2019-02-05T14:43:38.876Z,1636.00
2019-02-05T14:44:38.864Z,1600.00
2019-02-05T14:45:38.860Z,1436.00
2019-02-05T14:46:38.848Z,1260.00
2019-02-05T14:47:38.833Z,1248.00
2019-02-05T14:48:38.817Z,1256.00
2019-02-05T14:49:38.827Z,1104.00
2019-02-05T14:50:38.796Z,1024.00
2019-02-05T14:51:38.784Z,876.00
2019-02-05T14:52:38.774Z,828.00
2019-02-05T14:53:38.761Z,764.00
2019-02-05T14:54:38.752Z,704.00
2019-02-05T14:55:38.743Z,624.00
2019-02-05T14:56:38.735Z,580.00
2019-02-05T14:57:38.714Z,572.00
2019-02-05T14:58:38.704Z,548.00
2019-02-05T14:59:38.691Z,560.00
2019-02-05T15:00:38.680Z,636.00
2019-02-05T15:01:43.315Z,600.00
2019-02-05T15:02:38.657Z,564.00
2019-02-05T15:03:38.645Z,500.00
2019-02-05T15:04:38.639Z,416.00
2019-02-05T15:05:38.638Z,380.00
2019-02-05T15:06:38.612Z,428.00
2019-02-05T15:07:38.600Z,544.00
2019-02-05T15:08:38.588Z,552.00
2019-02-05T15:09:38.578Z,456.00
2019-02-05T15:10:38.566Z,376.00
2019-02-05T15:11:38.558Z,324.00
2019-02-05T15:12:38.543Z,284.00
2019-02-05T15:13:38.531Z,236.00
2019-02-05T15:14:38.525Z,216.00
2019-02-05T15:15:38.516Z,220.00
2019-02-05T15:16:38.497Z,208.00
2019-02-05T15:17:38.485Z,196.00
2019-02-05T15:18:38.481Z,192.00
2019-02-05T15:19:38.465Z,176.00
2019-02-05T15:20:38.453Z,176.00
2019-02-05T15:21:38.438Z,168.00
2019-02-05T15:22:38.431Z,164.00
2019-02-05T15:23:38.419Z,164.00
2019-02-05T15:24:40.895Z,168.00
2019-02-05T15:25:38.400Z,164.00
2019-02-05T15:26:38.383Z,180.00
2019-02-05T15:27:38.374Z,164.00
2019-02-05T15:28:38.358Z,168.00
2019-02-05T15:29:38.352Z,196.00
2019-02-05T15:30:38.337Z,208.00
2019-02-05T15:31:38.326Z,192.00
2019-02-05T15:32:38.317Z,180.00
2019-02-05T15:33:38.302Z,168.00
2019-02-05T15:34:38.296Z,172.00
2019-02-05T15:35:38.287Z,160.00
2019-02-05T15:36:38.278Z,152.00
2019-02-05T15:37:38.258Z,132.00
2019-02-05T15:38:38.257Z,120.00
2019-02-05T15:39:38.241Z,120.00
2019-02-05T15:40:38.229Z,124.00
2019-02-05T15:41:38.219Z,128.00
2019-02-05T15:42:38.209Z,100.00
2019-02-05T15:43:38.193Z,84.00
2019-02-05T15:44:38.293Z,84.00
2019-02-05T15:45:38.165Z,80.00
2019-02-05T15:46:38.161Z,72.00
2019-02-05T15:47:38.146Z,80.00
2019-02-05T15:48:38.136Z,76.00
2019-02-05T15:49:38.129Z,76.00
2019-02-05T15:50:38.115Z,72.00
2019-02-05T15:51:38.102Z,68.00
2019-02-05T15:52:38.085Z,72.00
2019-02-05T15:53:38.075Z,88.00
2019-02-05T15:54:38.075Z,88.00
2019-02-05T15:55:38.061Z,80.00
2019-02-05T15:56:38.058Z,68.00
2019-02-05T15:57:38.032Z,60.00
2019-02-05T15:58:38.038Z,48.00
2019-02-05T15:59:38.012Z,44.00
2019-02-05T16:00:37.998Z,44.00
2019-02-05T16:01:37.987Z,40.00
2019-02-05T16:02:37.979Z,36.00
2019-02-05T16:03:37.960Z,28.00
2019-02-05T16:04:37.951Z,24.00
2019-02-05T16:05:37.941Z,20.00
2019-02-05T16:06:37.928Z,24.00
2019-02-05T16:07:37.917Z,28.00
2019-02-05T16:08:37.916Z,24.00
2019-02-05T16:09:37.892Z,20.00
2019-02-05T16:10:37.887Z,16.00
2019-02-05T16:11:37.907Z,12.00
2019-02-05T16:12:37.859Z,12.00
2019-02-05T16:13:37.848Z,8.00
2019-02-05T16:14:37.836Z,12.00
2019-02-05T16:15:37.826Z,12.00
2019-02-05T16:16:37.819Z,8.00
2019-02-05T16:17:37.805Z,12.00
2019-02-05T16:18:37.793Z,8.00
2019-02-05T16:19:37.780Z,8.00
2019-02-05T16:20:37.769Z,4.00
2019-02-05T16:21:37.758Z,8.00
2019-02-05T16:22:37.745Z,4.00
2019-02-05T16:23:37.734Z,4.00
2019-02-05T16:24:37.724Z,4.00
2019-02-05T16:25:37.715Z,4.00
2019-02-05T16:26:37.699Z,4.00
2019-02-05T16:31:37.648Z,4.00
2019-02-05T16:32:37.638Z,4.00
2019-02-05T16:33:37.623Z,4.00
2019-02-05T16:34:37.639Z,4.00
2019-02-05T16:35:37.624Z,4.00
2019-02-05T16:36:37.589Z,4.00
2019-02-05T16:37:37.575Z,4.00
2019-02-05T16:38:37.564Z,4.00
2019-02-05T16:39:37.550Z,4.00
2019-02-05T16:40:37.547Z,4.00
2019-02-05T16:41:37.534Z,4.00
2019-02-05T16:42:37.521Z,4.00
2019-02-05T16:43:37.508Z,4.00
2019-02-05T16:44:37.498Z,4.00
2019-02-05T16:45:37.487Z,4.00
2019-02-05T16:46:37.471Z,4.00
2019-02-05T16:47:37.468Z,4.00
2019-02-05T16:48:37.447Z,4.00
2019-02-05T16:49:37.436Z,4.00
2019-02-05T16:50:37.434Z,4.00
2019-02-05T16:51:37.414Z,4.00
2019-02-05T16:52:37.404Z,4.00
2019-02-05T16:53:37.390Z,4.00
2019-02-05T16:54:37.379Z,4.00
2019-02-05T16:55:37.373Z,4.00
2019-02-05T16:56:37.356Z,4.00
2019-02-05T16:59:37.322Z,4.00
2019-02-05T17:00:37.319Z,4.00
2019-02-05T17:01:37.303Z,4.00
2019-02-05T17:02:37.294Z,4.00
2019-02-05T17:03:37.279Z,4.00
2019-02-05T17:04:37.273Z,4.00
2019-02-05T17:05:37.253Z,4.00
2019-02-05T17:06:37.244Z,4.00
2019-02-05T17:07:37.363Z,4.00
2019-02-05T17:08:37.224Z,4.00
2019-02-05T17:09:37.208Z,4.00
2019-02-05T17:10:37.197Z,4.00
2019-02-05T17:11:37.190Z,4.00
2019-02-05T17:12:37.177Z,4.00
2019-02-05T17:13:37.162Z,4.00
2019-02-05T17:14:37.152Z,4.00
2019-02-05T17:15:37.141Z,4.00
2019-02-05T17:16:37.132Z,4.00
2019-02-05T17:17:37.123Z,4.00
2019-02-05T17:18:37.106Z,4.00
2019-02-05T17:19:37.098Z,4.00
2019-02-05T17:20:37.090Z,4.00
2019-02-05T17:21:37.074Z,4.00
2019-02-05T17:22:37.063Z,4.00
2019-02-05T17:23:37.054Z,4.00
2019-02-05T17:24:37.037Z,4.00
2019-02-05T17:25:37.035Z,4.00
2019-02-05T17:26:37.020Z,4.00
2019-02-05T17:27:37.098Z,4.00
2019-02-05T17:28:36.994Z,4.00
2019-02-05T17:29:36.980Z,4.00
2019-02-05T17:30:36.969Z,4.00
2019-02-05T17:31:36.963Z,4.00
2019-02-05T17:32:40.343Z,4.00
2019-02-05T17:33:36.936Z,4.00
2019-02-05T17:34:36.923Z,4.00
2019-02-05T17:35:36.912Z,4.00
2019-02-05T17:36:36.899Z,4.00
2019-02-05T17:37:36.887Z,4.00
2019-02-05T17:38:36.879Z,4.00
2019-02-05T17:39:36.867Z,4.00
2019-02-05T17:40:36.861Z,4.00
2019-02-05T17:41:36.850Z,4.00
2019-02-05T17:42:36.833Z,4.00
2019-02-05T17:43:36.819Z,4.00
2019-02-05T17:44:36.811Z,4.00
2019-02-05T17:45:36.797Z,4.00
2019-02-05T17:46:36.786Z,4.00
2019-02-05T17:47:36.780Z,4.00
2019-02-05T17:48:36.762Z,4.00
2019-02-05T17:49:36.755Z,4.00
2019-02-05T17:50:36.739Z,4.00
2019-02-05T17:51:36.729Z,4.00
2019-02-05T17:57:36.668Z,4.00
2019-02-05T17:58:36.648Z,4.00
2019-02-05T18:02:36.604Z,4.00
2019-02-05T18:03:36.591Z,4.00
2019-02-05T18:04:36.585Z,4.00
2019-02-05T18:05:36.574Z,4.00
2019-02-05T18:06:36.557Z,4.00
2019-02-05T18:08:36.535Z,4.00
2019-02-05T18:09:36.521Z,4.00
2019-02-05T18:10:36.510Z,4.00
2019-02-05T18:11:36.504Z,4.00
2019-02-05T18:12:36.493Z,4.00
2019-02-05T18:13:36.476Z,4.00
2019-02-05T18:16:36.443Z,4.00
2019-02-05T18:21:36.385Z,4.00
2019-02-05T19:34:35.552Z,0.00
2019-02-05T20:54:34.636Z,0.00
2019-02-05T20:55:34.625Z,0.00
2019-02-05T20:56:34.617Z,0.00
2019-02-05T20:57:34.602Z,0.00
2019-02-05T20:58:34.592Z,0.00
2019-02-05T20:59:34.584Z,0.00
2019-02-05T22:39:57.934Z,0.00
2019-02-05T22:40:57.922Z,0.00
